Kütahya Airport

LTBN · 屈塔希亚省, 土耳其

使用的METAR站距离机场61 km。
罗盘
风向 的 风向 070° Kütahya Airport 15/33
风: 6 kt, 2 beaufort


6 kt
改变
0 ft 1.000 2.000 3.000 4.000 5.000
CAVOK
METAR LTBY 012250Z 07006KT CAVOK 07/01 Q1013

METAR Kütahya Airport - LTBN

Kütahya Airport是,土耳其中的小机场。 该机场位于纬度39,42670和经度30,01690。 该机场有一条跑道: 15/33. 本场的ICAO机场代码为LTBN。 机场在Istanbul FIR中。

该航空气象观测是针对Anadolu Airport在2024年3月2日 01:50, 当地时间进行的。

机场观察

风向为070°,速度为6 kt。

天气为CAVOK。这意味着在5.000 ft或MSA(最低安全高度)以下(以较高者为准)以下没有云。这也意味着没有观测到积雨云或高耸的积云,可见度为10 km 或者更多或更高。此外,不会有雾,降雨或其他重要天气。

温度为7 °C,阵风为4 °C。 露点为1 °C,相对湿度为66%。 海平面上的气压为1013 hPa (QNH)。

白天

今天,太阳从07:31升起,在18:52降落。 这适用于Kütahya Airport,世界夏令时可能有所不同。 当地时间与世界标准时间之间的时差为+3 小时。 当前,没有夏令时有效。

公司介绍

我们没有关于这个机场的公司信息。

体会

到Vliegles.nl去找飞行课程,跳伞和其他飞行体验。 浏览页面,了解Kütahya Airport附近所有可用的活动。 你也可以使用搜索功能来寻找你所在地附近的特定飞行课程、跳伞或其他飞行体验。

跑道

Id 标题 侧风 逆风 侧风 %
15/33 159°-339° 6 kt 100 %

逆风成分最大的方向会被突出显示,并用于横风计算。 这并不一定意味着这个方向在使用。

温度 & 天气

温度 7 °C
露点 1 °C
相对湿度 66%
风寒 4 °C
Kp-index 0 (0-9)

白天

日出
07:30 (4:47)
中午
13:10
日落
18:50

小工具

你想在你的网站上有一个关于Kütahya Airport的当前航空天气(METAR)的小部件吗?

显示HTML代码
?>